Aérodrome :
LOGIN :

S'inscrire | Disclaimer

   EN    FR    IT 

 










Légende :    VFR   VFR Marginal   IFR   IFR Intensif   IFR Très Intensif
Visi : 
Plafond : 
>= 8 km
>= 3000ft
5 à 8 km
1000 à 3000 ft
1500m à 5 km
500 à 1000 ft
800 à 1500m
200 à 500 ft
< 800m
< 200 ft
Symboles :   Orages  Brouillard  Fortes neiges  Fortes précipitations  Vent > 20 kt
SIGMETs :   Divers  Orages  Givrage  Turbulence  Onde Orograph.  Cendres Volcan.







- Altitude de l'aérodrome : 158 ft
- Code IATA : QAR


EHDL - Deelen Airbase

DERNIER METAR :
  • 261755Z AUTO 28005KT 240V340 9999 OVC047 08/02 Q1030 BLU

METARs EXPIRÉS :
  • 261725Z AUTO 28007KT 250V030 9999 OVC048 08/02 Q1030 BLU
  • 261715Z AUTO 28007KT 230V340 9999 OVC047 08/02 Q1030 BLU
  • 261655Z AUTO 29007KT 250V360 9999 BKN043 OVC049 09/02 Q1030 BLU
  • 261625Z AUTO 28008KT 230V350 9999 OVC053 09/02 Q1030 BLU
  • 261555Z AUTO 31007KT 250V360 9999 SCT034 OVC053 10/02 Q1030 BLU
  • 261525Z AUTO 30008KT 270V360 9999 SCT043 BKN047 OVC053 09/02 Q1030 BLU

TAF TAF EHDL
Valide du 26 à 14h jusqu'au 27 à 02h UTC


261313Z 2614/2702 30007KT 9999 SCT030
BECMG 2622/2624 VRB03KT 4000 BR
PROB40 2700/2702 0800 FG BKN001
Pas de NOTAMs connus pour ce terrain.



MET'MAP, la Météo Aéronautique d'un coup d'oeil ! - Copyright ORBIFLY Décembre 2007 - Disclaimer

ORBIFLY MET'MAP TEAM :

Programmation & Développement : Alexandra Zaïnal
Conception & Développement : Baudouin d'Aumeries
Co-Programmation & Développement : Marc-Olivier Méhu
Soutien technique & logistique : Manuel Goepfert

Contact : metmap@orbifly.com




SOURCES & CREDITS :

   NOAA